sensor_id;sensor_type;location;lat;lon;timestamp;P1;durP1;ratioP1;P2;durP2;ratioP2
78116;SDS011;67887;59.082;37.928;2023-04-03T00:01:20;14.85;;;3.38;;
78116;SDS011;67887;59.082;37.928;2023-04-03T00:03:47;11.65;;;2.83;;
78116;SDS011;67887;59.082;37.928;2023-04-03T00:06:13;15.63;;;3.22;;
78116;SDS011;67887;59.082;37.928;2023-04-03T00:08:39;16.83;;;3.15;;
78116;SDS011;67887;59.082;37.928;2023-04-03T00:11:06;7.47;;;2.60;;
78116;SDS011;67887;59.082;37.928;2023-04-03T00:13:33;14.80;;;2.97;;
78116;SDS011;67887;59.082;37.928;2023-04-03T00:15:59;9.35;;;2.65;;
78116;SDS011;67887;59.082;37.928;2023-04-03T00:18:26;11.82;;;3.10;;
78116;SDS011;67887;59.082;37.928;2023-04-03T00:20:53;15.93;;;3.05;;
78116;SDS011;67887;59.082;37.928;2023-04-03T00:23:19;10.93;;;2.92;;
78116;SDS011;67887;59.082;37.928;2023-04-03T00:25:45;9.52;;;3.03;;
78116;SDS011;67887;59.082;37.928;2023-04-03T00:28:11;12.93;;;3.15;;
78116;SDS011;67887;59.082;37.928;2023-04-03T00:30:38;13.80;;;2.97;;
78116;SDS011;67887;59.082;37.928;2023-04-03T00:33:04;10.80;;;2.92;;
78116;SDS011;67887;59.082;37.928;2023-04-03T00:35:30;15.55;;;3.33;;
78116;SDS011;67887;59.082;37.928;2023-04-03T00:37:57;10.27;;;3.10;;
78116;SDS011;67887;59.082;37.928;2023-04-03T00:40:24;10.32;;;2.92;;
78116;SDS011;67887;59.082;37.928;2023-04-03T00:42:56;11.10;;;3.15;;
78116;SDS011;67887;59.082;37.928;2023-04-03T00:45:26;12.05;;;2.72;;
78116;SDS011;67887;59.082;37.928;2023-04-03T00:48:02;8.90;;;3.40;;
78116;SDS011;67887;59.082;37.928;2023-04-03T00:50:34;11.32;;;2.80;;
78116;SDS011;67887;59.082;37.928;2023-04-03T00:53:04;9.50;;;2.95;;
78116;SDS011;67887;59.082;37.928;2023-04-03T00:55:33;7.82;;;3.00;;
78116;SDS011;67887;59.082;37.928;2023-04-03T00:58:02;7.53;;;2.92;;
78116;SDS011;67887;59.082;37.928;2023-04-03T01:00:30;10.95;;;3.05;;
78116;SDS011;67887;59.082;37.928;2023-04-03T01:02:56;7.80;;;2.38;;
78116;SDS011;67887;59.082;37.928;2023-04-03T01:05:23;7.20;;;2.00;;
78116;SDS011;67887;59.082;37.928;2023-04-03T01:07:50;11.02;;;3.00;;
78116;SDS011;67887;59.082;37.928;2023-04-03T01:10:18;14.82;;;4.00;;
78116;SDS011;67887;59.082;37.928;2023-04-03T01:12:48;9.05;;;2.90;;
78116;SDS011;67887;59.082;37.928;2023-04-03T01:15:17;10.32;;;3.42;;
78116;SDS011;67887;59.082;37.928;2023-04-03T01:17:53;9.57;;;3.25;;
78116;SDS011;67887;59.082;37.928;2023-04-03T01:25:40;12.23;;;3.20;;
78116;SDS011;67887;59.082;37.928;2023-04-03T01:28:12;8.80;;;3.22;;
78116;SDS011;67887;59.082;37.928;2023-04-03T01:30:59;9.65;;;2.90;;
78116;SDS011;67887;59.082;37.928;2023-04-03T01:33:27;12.55;;;3.03;;
78116;SDS011;67887;59.082;37.928;2023-04-03T01:35:56;7.75;;;2.65;;
78116;SDS011;67887;59.082;37.928;2023-04-03T01:38:23;9.93;;;2.20;;
78116;SDS011;67887;59.082;37.928;2023-04-03T01:40:49;6.63;;;2.10;;
78116;SDS011;67887;59.082;37.928;2023-04-03T01:43:16;8.30;;;2.10;;
78116;SDS011;67887;59.082;37.928;2023-04-03T01:45:42;5.35;;;1.45;;
78116;SDS011;67887;59.082;37.928;2023-04-03T01:48:09;8.13;;;1.60;;
78116;SDS011;67887;59.082;37.928;2023-04-03T01:50:36;5.68;;;1.63;;
78116;SDS011;67887;59.082;37.928;2023-04-03T01:53:02;5.75;;;1.50;;
78116;SDS011;67887;59.082;37.928;2023-04-03T01:55:28;5.45;;;1.65;;
78116;SDS011;67887;59.082;37.928;2023-04-03T01:57:54;6.22;;;1.50;;
78116;SDS011;67887;59.082;37.928;2023-04-03T02:00:21;9.50;;;1.95;;
78116;SDS011;67887;59.082;37.928;2023-04-03T02:02:47;6.07;;;1.88;;
78116;SDS011;67887;59.082;37.928;2023-04-03T02:05:14;4.70;;;1.50;;
78116;SDS011;67887;59.082;37.928;2023-04-03T02:07:41;3.33;;;1.20;;
78116;SDS011;67887;59.082;37.928;2023-04-03T02:10:07;6.55;;;1.80;;
78116;SDS011;67887;59.082;37.928;2023-04-03T02:12:34;7.00;;;1.33;;
78116;SDS011;67887;59.082;37.928;2023-04-03T02:15:00;5.95;;;1.67;;
78116;SDS011;67887;59.082;37.928;2023-04-03T02:17:26;11.05;;;1.85;;
78116;SDS011;67887;59.082;37.928;2023-04-03T02:19:54;8.63;;;1.65;;
78116;SDS011;67887;59.082;37.928;2023-04-03T02:22:20;6.78;;;1.88;;
78116;SDS011;67887;59.082;37.928;2023-04-03T02:24:46;9.80;;;1.67;;
78116;SDS011;67887;59.082;37.928;2023-04-03T02:27:13;6.47;;;1.60;;
78116;SDS011;67887;59.082;37.928;2023-04-03T02:29:39;8.30;;;1.75;;
78116;SDS011;67887;59.082;37.928;2023-04-03T02:32:05;6.43;;;1.83;;
78116;SDS011;67887;59.082;37.928;2023-04-03T02:34:32;10.82;;;1.50;;
78116;SDS011;67887;59.082;37.928;2023-04-03T02:37:00;7.40;;;1.83;;
78116;SDS011;67887;59.082;37.928;2023-04-03T02:39:27;4.60;;;1.40;;
78116;SDS011;67887;59.082;37.928;2023-04-03T02:41:54;5.15;;;1.50;;
78116;SDS011;67887;59.082;37.928;2023-04-03T02:44:23;4.40;;;1.52;;
78116;SDS011;67887;59.082;37.928;2023-04-03T02:46:50;6.22;;;1.58;;
78116;SDS011;67887;59.082;37.928;2023-04-03T02:49:16;10.60;;;1.63;;
78116;SDS011;67887;59.082;37.928;2023-04-03T02:51:42;9.23;;;1.60;;
78116;SDS011;67887;59.082;37.928;2023-04-03T02:54:10;6.05;;;1.48;;
78116;SDS011;67887;59.082;37.928;2023-04-03T02:56:40;8.30;;;1.70;;
78116;SDS011;67887;59.082;37.928;2023-04-03T02:59:06;7.55;;;1.80;;
78116;SDS011;67887;59.082;37.928;2023-04-03T03:01:34;6.72;;;1.80;;
78116;SDS011;67887;59.082;37.928;2023-04-03T03:04:01;5.85;;;1.52;;
78116;SDS011;67887;59.082;37.928;2023-04-03T03:06:27;5.95;;;1.55;;
78116;SDS011;67887;59.082;37.928;2023-04-03T03:08:54;6.07;;;1.77;;
78116;SDS011;67887;59.082;37.928;2023-04-03T03:11:20;5.47;;;1.80;;
78116;SDS011;67887;59.082;37.928;2023-04-03T03:13:46;5.57;;;1.73;;
78116;SDS011;67887;59.082;37.928;2023-04-03T03:16:13;7.90;;;1.63;;
78116;SDS011;67887;59.082;37.928;2023-04-03T03:18:39;7.75;;;1.50;;
78116;SDS011;67887;59.082;37.928;2023-04-03T03:21:05;9.18;;;1.85;;
78116;SDS011;67887;59.082;37.928;2023-04-03T03:23:32;7.35;;;1.73;;
78116;SDS011;67887;59.082;37.928;2023-04-03T03:25:59;7.25;;;1.80;;
78116;SDS011;67887;59.082;37.928;2023-04-03T03:28:32;7.10;;;1.70;;
78116;SDS011;67887;59.082;37.928;2023-04-03T03:30:59;8.50;;;1.80;;
78116;SDS011;67887;59.082;37.928;2023-04-03T03:33:26;7.70;;;1.80;;
78116;SDS011;67887;59.082;37.928;2023-04-03T03:35:53;6.95;;;1.48;;
78116;SDS011;67887;59.082;37.928;2023-04-03T03:38:19;9.57;;;2.03;;
78116;SDS011;67887;59.082;37.928;2023-04-03T03:40:47;9.63;;;2.20;;
78116;SDS011;67887;59.082;37.928;2023-04-03T03:43:15;6.38;;;2.08;;
78116;SDS011;67887;59.082;37.928;2023-04-03T03:45:42;7.10;;;2.03;;
78116;SDS011;67887;59.082;37.928;2023-04-03T03:48:08;6.45;;;2.00;;
78116;SDS011;67887;59.082;37.928;2023-04-03T03:50:35;5.30;;;1.73;;
78116;SDS011;67887;59.082;37.928;2023-04-03T03:53:01;6.88;;;1.80;;
78116;SDS011;67887;59.082;37.928;2023-04-03T03:55:28;6.88;;;2.05;;
78116;SDS011;67887;59.082;37.928;2023-04-03T03:57:57;9.85;;;2.13;;
78116;SDS011;67887;59.082;37.928;2023-04-03T04:00:24;7.88;;;1.80;;
78116;SDS011;67887;59.082;37.928;2023-04-03T04:02:54;12.35;;;1.98;;
78116;SDS011;67887;59.082;37.928;2023-04-03T04:05:22;9.23;;;1.80;;
78116;SDS011;67887;59.082;37.928;2023-04-03T04:07:49;9.15;;;1.85;;
78116;SDS011;67887;59.082;37.928;2023-04-03T04:10:16;10.10;;;1.90;;
78116;SDS011;67887;59.082;37.928;2023-04-03T04:12:44;13.93;;;2.20;;
78116;SDS011;67887;59.082;37.928;2023-04-03T04:15:12;5.97;;;1.98;;
78116;SDS011;67887;59.082;37.928;2023-04-03T04:17:39;6.15;;;1.85;;
78116;SDS011;67887;59.082;37.928;2023-04-03T04:20:09;9.63;;;1.90;;
78116;SDS011;67887;59.082;37.928;2023-04-03T04:22:36;5.57;;;1.70;;
78116;SDS011;67887;59.082;37.928;2023-04-03T04:25:04;5.30;;;1.52;;
78116;SDS011;67887;59.082;37.928;2023-04-03T04:27:31;6.50;;;1.70;;
78116;SDS011;67887;59.082;37.928;2023-04-03T04:29:58;5.60;;;1.77;;
78116;SDS011;67887;59.082;37.928;2023-04-03T04:32:24;8.00;;;1.80;;
78116;SDS011;67887;59.082;37.928;2023-04-03T04:34:50;8.10;;;1.80;;
78116;SDS011;67887;59.082;37.928;2023-04-03T04:37:17;8.68;;;1.90;;
78116;SDS011;67887;59.082;37.928;2023-04-03T04:39:43;7.10;;;1.60;;
78116;SDS011;67887;59.082;37.928;2023-04-03T04:42:10;6.05;;;2.00;;
78116;SDS011;67887;59.082;37.928;2023-04-03T04:44:40;7.13;;;1.80;;
78116;SDS011;67887;59.082;37.928;2023-04-03T04:47:07;7.03;;;1.98;;
78116;SDS011;67887;59.082;37.928;2023-04-03T04:49:33;4.80;;;1.73;;
78116;SDS011;67887;59.082;37.928;2023-04-03T04:52:00;6.50;;;2.00;;
78116;SDS011;67887;59.082;37.928;2023-04-03T04:54:30;8.98;;;1.88;;
78116;SDS011;67887;59.082;37.928;2023-04-03T04:56:56;6.47;;;1.92;;
78116;SDS011;67887;59.082;37.928;2023-04-03T04:59:23;6.82;;;1.75;;
78116;SDS011;67887;59.082;37.928;2023-04-03T05:01:52;7.07;;;1.92;;
78116;SDS011;67887;59.082;37.928;2023-04-03T05:04:18;9.50;;;3.08;;
78116;SDS011;67887;59.082;37.928;2023-04-03T05:06:48;9.48;;;1.90;;
78116;SDS011;67887;59.082;37.928;2023-04-03T05:09:19;9.23;;;2.30;;
78116;SDS011;67887;59.082;37.928;2023-04-03T05:11:46;8.10;;;3.50;;
78116;SDS011;67887;59.082;37.928;2023-04-03T05:14:14;6.22;;;1.95;;
78116;SDS011;67887;59.082;37.928;2023-04-03T05:16:41;8.07;;;2.15;;
78116;SDS011;67887;59.082;37.928;2023-04-03T05:19:07;6.95;;;2.28;;
78116;SDS011;67887;59.082;37.928;2023-04-03T05:21:34;8.35;;;2.50;;
78116;SDS011;67887;59.082;37.928;2023-04-03T05:24:05;7.78;;;2.08;;
78116;SDS011;67887;59.082;37.928;2023-04-03T05:26:37;6.05;;;2.20;;
78116;SDS011;67887;59.082;37.928;2023-04-03T05:29:05;9.00;;;2.35;;
78116;SDS011;67887;59.082;37.928;2023-04-03T05:31:31;9.48;;;2.20;;
78116;SDS011;67887;59.082;37.928;2023-04-03T05:33:59;6.72;;;2.20;;
78116;SDS011;67887;59.082;37.928;2023-04-03T05:36:27;5.00;;;2.08;;
78116;SDS011;67887;59.082;37.928;2023-04-03T05:38:58;7.55;;;1.80;;
78116;SDS011;67887;59.082;37.928;2023-04-03T05:41:25;6.80;;;1.98;;
78116;SDS011;67887;59.082;37.928;2023-04-03T05:43:51;5.70;;;1.90;;
78116;SDS011;67887;59.082;37.928;2023-04-03T05:46:19;9.88;;;2.50;;
78116;SDS011;67887;59.082;37.928;2023-04-03T05:48:50;8.45;;;2.10;;
78116;SDS011;67887;59.082;37.928;2023-04-03T05:51:24;7.78;;;2.70;;
78116;SDS011;67887;59.082;37.928;2023-04-03T05:54:03;8.70;;;2.47;;
78116;SDS011;67887;59.082;37.928;2023-04-03T05:56:54;5.85;;;2.15;;
78116;SDS011;67887;59.082;37.928;2023-04-03T05:59:22;9.13;;;2.80;;
78116;SDS011;67887;59.082;37.928;2023-04-03T06:01:51;8.35;;;2.80;;
78116;SDS011;67887;59.082;37.928;2023-04-03T06:04:18;7.90;;;2.22;;
78116;SDS011;67887;59.082;37.928;2023-04-03T06:06:49;8.43;;;2.28;;
78116;SDS011;67887;59.082;37.928;2023-04-03T06:09:18;11.25;;;2.78;;
78116;SDS011;67887;59.082;37.928;2023-04-03T06:11:48;6.63;;;3.10;;
78116;SDS011;67887;59.082;37.928;2023-04-03T06:14:16;12.57;;;2.60;;
78116;SDS011;67887;59.082;37.928;2023-04-03T06:16:42;9.25;;;2.80;;
78116;SDS011;67887;59.082;37.928;2023-04-03T06:19:09;10.95;;;3.28;;
78116;SDS011;67887;59.082;37.928;2023-04-03T06:21:41;10.70;;;3.10;;
78116;SDS011;67887;59.082;37.928;2023-04-03T06:24:07;6.72;;;2.42;;
78116;SDS011;67887;59.082;37.928;2023-04-03T06:26:35;10.98;;;3.47;;
78116;SDS011;67887;59.082;37.928;2023-04-03T06:29:01;8.75;;;2.85;;
78116;SDS011;67887;59.082;37.928;2023-04-03T06:31:28;8.35;;;3.03;;
78116;SDS011;67887;59.082;37.928;2023-04-03T06:33:54;12.30;;;3.10;;
78116;SDS011;67887;59.082;37.928;2023-04-03T06:36:22;6.85;;;3.05;;
78116;SDS011;67887;59.082;37.928;2023-04-03T06:38:48;9.55;;;3.35;;
78116;SDS011;67887;59.082;37.928;2023-04-03T06:41:15;7.35;;;2.88;;
78116;SDS011;67887;59.082;37.928;2023-04-03T06:43:42;9.75;;;3.85;;
78116;SDS011;67887;59.082;37.928;2023-04-03T06:46:15;11.30;;;3.50;;
78116;SDS011;67887;59.082;37.928;2023-04-03T06:48:43;12.73;;;3.95;;
78116;SDS011;67887;59.082;37.928;2023-04-03T06:51:27;8.50;;;3.08;;
78116;SDS011;67887;59.082;37.928;2023-04-03T06:53:55;9.90;;;4.20;;
78116;SDS011;67887;59.082;37.928;2023-04-03T06:56:23;10.70;;;4.10;;
78116;SDS011;67887;59.082;37.928;2023-04-03T06:58:52;9.40;;;3.85;;
78116;SDS011;67887;59.082;37.928;2023-04-03T07:01:20;10.80;;;4.10;;
78116;SDS011;67887;59.082;37.928;2023-04-03T07:03:47;10.50;;;3.40;;
78116;SDS011;67887;59.082;37.928;2023-04-03T07:06:15;8.68;;;3.60;;
78116;SDS011;67887;59.082;37.928;2023-04-03T07:08:42;10.10;;;3.83;;
78116;SDS011;67887;59.082;37.928;2023-04-03T07:11:09;10.73;;;3.80;;
78116;SDS011;67887;59.082;37.928;2023-04-03T07:13:37;7.40;;;3.35;;
78116;SDS011;67887;59.082;37.928;2023-04-03T07:16:03;10.60;;;3.60;;
78116;SDS011;67887;59.082;37.928;2023-04-03T07:18:32;10.73;;;3.17;;
78116;SDS011;67887;59.082;37.928;2023-04-03T07:20:59;8.40;;;2.55;;
78116;SDS011;67887;59.082;37.928;2023-04-03T07:23:27;9.50;;;4.05;;
78116;SDS011;67887;59.082;37.928;2023-04-03T07:25:56;8.93;;;3.33;;
78116;SDS011;67887;59.082;37.928;2023-04-03T07:28:22;11.07;;;4.47;;
78116;SDS011;67887;59.082;37.928;2023-04-03T07:30:50;10.20;;;4.07;;
78116;SDS011;67887;59.082;37.928;2023-04-03T07:33:17;9.88;;;3.72;;
78116;SDS011;67887;59.082;37.928;2023-04-03T07:38:12;7.05;;;2.83;;
78116;SDS011;67887;59.082;37.928;2023-04-03T07:40:38;8.55;;;2.97;;
78116;SDS011;67887;59.082;37.928;2023-04-03T07:43:05;11.75;;;4.28;;
78116;SDS011;67887;59.082;37.928;2023-04-03T07:45:34;9.85;;;4.15;;
78116;SDS011;67887;59.082;37.928;2023-04-03T07:48:01;10.05;;;4.15;;
78116;SDS011;67887;59.082;37.928;2023-04-03T07:50:28;9.65;;;4.45;;
78116;SDS011;67887;59.082;37.928;2023-04-03T07:52:56;14.98;;;5.50;;
78116;SDS011;67887;59.082;37.928;2023-04-03T07:55:24;14.93;;;5.93;;
78116;SDS011;67887;59.082;37.928;2023-04-03T07:57:50;16.73;;;6.32;;
78116;SDS011;67887;59.082;37.928;2023-04-03T08:00:17;15.80;;;6.30;;
78116;SDS011;67887;59.082;37.928;2023-04-03T08:02:44;17.45;;;7.45;;
78116;SDS011;67887;59.082;37.928;2023-04-03T08:05:16;17.50;;;7.68;;
78116;SDS011;67887;59.082;37.928;2023-04-03T08:07:46;15.73;;;6.82;;
78116;SDS011;67887;59.082;37.928;2023-04-03T08:10:13;18.30;;;7.70;;
78116;SDS011;67887;59.082;37.928;2023-04-03T08:12:40;20.85;;;7.57;;
78116;SDS011;67887;59.082;37.928;2023-04-03T08:15:07;14.13;;;5.80;;
78116;SDS011;67887;59.082;37.928;2023-04-03T08:17:34;17.60;;;6.72;;
78116;SDS011;67887;59.082;37.928;2023-04-03T08:20:01;19.10;;;7.07;;
78116;SDS011;67887;59.082;37.928;2023-04-03T08:22:30;17.08;;;6.63;;
78116;SDS011;67887;59.082;37.928;2023-04-03T08:24:56;14.05;;;5.93;;
78116;SDS011;67887;59.082;37.928;2023-04-03T08:27:23;15.07;;;6.20;;
78116;SDS011;67887;59.082;37.928;2023-04-03T08:29:49;10.95;;;4.35;;
78116;SDS011;67887;59.082;37.928;2023-04-03T08:32:15;11.60;;;4.30;;
78116;SDS011;67887;59.082;37.928;2023-04-03T08:34:41;9.02;;;3.70;;
78116;SDS011;67887;59.082;37.928;2023-04-03T08:37:08;8.32;;;3.35;;
78116;SDS011;67887;59.082;37.928;2023-04-03T08:39:35;8.13;;;3.38;;
78116;SDS011;67887;59.082;37.928;2023-04-03T08:42:02;9.73;;;3.72;;
78116;SDS011;67887;59.082;37.928;2023-04-03T08:47:42;8.57;;;3.42;;
78116;SDS011;67887;59.082;37.928;2023-04-03T08:50:19;8.20;;;3.33;;
78116;SDS011;67887;59.082;37.928;2023-04-03T08:52:55;8.10;;;3.08;;
78116;SDS011;67887;59.082;37.928;2023-04-03T08:55:24;8.18;;;3.22;;
78116;SDS011;67887;59.082;37.928;2023-04-03T08:57:58;7.13;;;2.78;;
78116;SDS011;67887;59.082;37.928;2023-04-03T09:00:28;9.25;;;3.10;;
78116;SDS011;67887;59.082;37.928;2023-04-03T09:03:00;7.07;;;2.70;;
78116;SDS011;67887;59.082;37.928;2023-04-03T09:05:35;9.43;;;3.00;;
78116;SDS011;67887;59.082;37.928;2023-04-03T09:10:59;7.13;;;2.70;;
78116;SDS011;67887;59.082;37.928;2023-04-03T09:13:48;9.80;;;2.67;;
78116;SDS011;67887;59.082;37.928;2023-04-03T09:21:59;6.47;;;2.58;;
78116;SDS011;67887;59.082;37.928;2023-04-03T09:27:25;7.07;;;2.63;;
78116;SDS011;67887;59.082;37.928;2023-04-03T09:29:52;6.25;;;3.00;;
78116;SDS011;67887;59.082;37.928;2023-04-03T09:32:25;6.47;;;2.67;;
78116;SDS011;67887;59.082;37.928;2023-04-03T09:34:55;7.22;;;3.13;;
78116;SDS011;67887;59.082;37.928;2023-04-03T09:40:28;7.93;;;3.65;;
78116;SDS011;67887;59.082;37.928;2023-04-03T09:43:19;7.65;;;3.33;;
78116;SDS011;67887;59.082;37.928;2023-04-03T09:45:48;8.77;;;3.50;;
78116;SDS011;67887;59.082;37.928;2023-04-03T09:48:17;7.65;;;3.03;;
78116;SDS011;67887;59.082;37.928;2023-04-03T09:53:31;7.60;;;3.10;;
78116;SDS011;67887;59.082;37.928;2023-04-03T09:56:04;9.05;;;3.90;;
78116;SDS011;67887;59.082;37.928;2023-04-03T09:58:47;8.35;;;3.33;;
78116;SDS011;67887;59.082;37.928;2023-04-03T10:01:22;8.00;;;3.35;;
78116;SDS011;67887;59.082;37.928;2023-04-03T10:06:34;7.55;;;3.45;;
78116;SDS011;67887;59.082;37.928;2023-04-03T10:09:15;8.80;;;3.10;;
78116;SDS011;67887;59.082;37.928;2023-04-03T10:14:34;8.88;;;3.03;;
78116;SDS011;67887;59.082;37.928;2023-04-03T10:17:14;7.75;;;3.80;;
78116;SDS011;67887;59.082;37.928;2023-04-03T10:35:53;8.07;;;2.95;;
78116;SDS011;67887;59.082;37.928;2023-04-03T10:38:55;7.43;;;3.08;;
78116;SDS011;67887;59.082;37.928;2023-04-03T10:49:34;7.15;;;2.63;;
78116;SDS011;67887;59.082;37.928;2023-04-03T10:57:41;8.40;;;3.20;;
78116;SDS011;67887;59.082;37.928;2023-04-03T11:00:15;7.93;;;3.13;;
78116;SDS011;67887;59.082;37.928;2023-04-03T11:02:57;9.15;;;3.45;;
78116;SDS011;67887;59.082;37.928;2023-04-03T11:05:42;6.30;;;3.10;;
78116;SDS011;67887;59.082;37.928;2023-04-03T11:08:13;7.85;;;2.97;;
78116;SDS011;67887;59.082;37.928;2023-04-03T11:10:49;7.10;;;2.60;;
78116;SDS011;67887;59.082;37.928;2023-04-03T11:13:19;8.98;;;3.38;;
78116;SDS011;67887;59.082;37.928;2023-04-03T11:15:51;7.05;;;2.95;;
78116;SDS011;67887;59.082;37.928;2023-04-03T11:18:37;7.15;;;2.97;;
78116;SDS011;67887;59.082;37.928;2023-04-03T11:24:22;6.00;;;2.63;;
78116;SDS011;67887;59.082;37.928;2023-04-03T11:26:52;7.80;;;3.15;;
78116;SDS011;67887;59.082;37.928;2023-04-03T11:29:22;7.10;;;2.72;;
78116;SDS011;67887;59.082;37.928;2023-04-03T11:34:40;8.23;;;3.25;;
78116;SDS011;67887;59.082;37.928;2023-04-03T11:40:25;6.60;;;2.67;;
78116;SDS011;67887;59.082;37.928;2023-04-03T11:42:54;7.75;;;3.08;;
78116;SDS011;67887;59.082;37.928;2023-04-03T11:45:34;8.00;;;3.08;;
78116;SDS011;67887;59.082;37.928;2023-04-03T11:50:55;6.55;;;2.85;;
78116;SDS011;67887;59.082;37.928;2023-04-03T12:01:51;7.70;;;3.10;;
78116;SDS011;67887;59.082;37.928;2023-04-03T12:04:22;8.20;;;3.28;;
78116;SDS011;67887;59.082;37.928;2023-04-03T12:06:52;6.45;;;2.70;;
78116;SDS011;67887;59.082;37.928;2023-04-03T12:09:29;7.00;;;2.67;;
78116;SDS011;67887;59.082;37.928;2023-04-03T12:12:01;9.65;;;3.47;;
78116;SDS011;67887;59.082;37.928;2023-04-03T12:14:49;7.50;;;3.03;;
78116;SDS011;67887;59.082;37.928;2023-04-03T12:17:20;7.97;;;2.92;;
78116;SDS011;67887;59.082;37.928;2023-04-03T12:19:50;8.90;;;2.92;;
78116;SDS011;67887;59.082;37.928;2023-04-03T12:22:17;9.70;;;3.25;;
78116;SDS011;67887;59.082;37.928;2023-04-03T12:24:47;8.00;;;2.95;;
78116;SDS011;67887;59.082;37.928;2023-04-03T12:44:24;8.20;;;3.72;;
78116;SDS011;67887;59.082;37.928;2023-04-03T12:46:53;11.45;;;4.13;;
78116;SDS011;67887;59.082;37.928;2023-04-03T12:51:54;8.80;;;3.53;;
78116;SDS011;67887;59.082;37.928;2023-04-03T12:54:22;8.80;;;3.85;;
78116;SDS011;67887;59.082;37.928;2023-04-03T12:57:08;9.65;;;3.13;;
78116;SDS011;67887;59.082;37.928;2023-04-03T12:59:40;10.18;;;3.95;;
78116;SDS011;67887;59.082;37.928;2023-04-03T13:04:56;8.15;;;3.45;;
78116;SDS011;67887;59.082;37.928;2023-04-03T13:07:27;8.98;;;3.25;;
78116;SDS011;67887;59.082;37.928;2023-04-03T13:09:58;9.98;;;3.40;;
78116;SDS011;67887;59.082;37.928;2023-04-03T13:12:27;8.77;;;3.58;;
78116;SDS011;67887;59.082;37.928;2023-04-03T13:14:55;8.02;;;3.30;;
78116;SDS011;67887;59.082;37.928;2023-04-03T13:17:24;12.35;;;3.75;;
78116;SDS011;67887;59.082;37.928;2023-04-03T13:19:51;11.35;;;4.03;;
78116;SDS011;67887;59.082;37.928;2023-04-03T13:22:26;16.40;;;7.10;;
78116;SDS011;67887;59.082;37.928;2023-04-03T13:24:58;20.90;;;8.60;;
78116;SDS011;67887;59.082;37.928;2023-04-03T13:27:28;18.58;;;7.45;;
78116;SDS011;67887;59.082;37.928;2023-04-03T13:29:57;12.05;;;3.88;;
78116;SDS011;67887;59.082;37.928;2023-04-03T13:32:26;10.10;;;4.38;;
78116;SDS011;67887;59.082;37.928;2023-04-03T13:34:54;10.20;;;3.80;;
78116;SDS011;67887;59.082;37.928;2023-04-03T13:37:22;12.40;;;4.22;;
78116;SDS011;67887;59.082;37.928;2023-04-03T13:42:46;8.65;;;3.88;;
78116;SDS011;67887;59.082;37.928;2023-04-03T13:45:27;7.35;;;3.42;;
78116;SDS011;67887;59.082;37.928;2023-04-03T13:48:09;6.55;;;3.58;;
78116;SDS011;67887;59.082;37.928;2023-04-03T13:50:52;10.57;;;3.28;;
78116;SDS011;67887;59.082;37.928;2023-04-03T13:53:27;8.48;;;3.47;;
78116;SDS011;67887;59.082;37.928;2023-04-03T13:58:30;7.55;;;3.10;;
78116;SDS011;67887;59.082;37.928;2023-04-03T14:06:13;8.00;;;3.30;;
78116;SDS011;67887;59.082;37.928;2023-04-03T14:08:43;8.57;;;3.28;;
78116;SDS011;67887;59.082;37.928;2023-04-03T14:11:12;8.57;;;3.38;;
78116;SDS011;67887;59.082;37.928;2023-04-03T14:13:41;8.77;;;3.17;;
78116;SDS011;67887;59.082;37.928;2023-04-03T14:16:11;9.55;;;3.25;;
78116;SDS011;67887;59.082;37.928;2023-04-03T14:18:39;11.80;;;3.42;;
78116;SDS011;67887;59.082;37.928;2023-04-03T14:21:06;7.80;;;2.85;;
78116;SDS011;67887;59.082;37.928;2023-04-03T14:23:32;8.75;;;2.85;;
78116;SDS011;67887;59.082;37.928;2023-04-03T14:25:58;9.05;;;2.95;;
78116;SDS011;67887;59.082;37.928;2023-04-03T14:28:26;8.48;;;3.42;;
78116;SDS011;67887;59.082;37.928;2023-04-03T14:30:52;7.15;;;2.83;;
78116;SDS011;67887;59.082;37.928;2023-04-03T14:33:20;7.07;;;2.85;;
78116;SDS011;67887;59.082;37.928;2023-04-03T14:38:20;6.93;;;2.63;;
78116;SDS011;67887;59.082;37.928;2023-04-03T14:40:49;8.85;;;2.67;;
78116;SDS011;67887;59.082;37.928;2023-04-03T14:43:16;8.95;;;3.13;;
78116;SDS011;67887;59.082;37.928;2023-04-03T14:45:43;8.02;;;2.88;;
78116;SDS011;67887;59.082;37.928;2023-04-03T14:48:12;8.32;;;3.10;;
78116;SDS011;67887;59.082;37.928;2023-04-03T14:50:45;7.78;;;3.05;;
78116;SDS011;67887;59.082;37.928;2023-04-03T14:53:12;9.20;;;2.78;;
78116;SDS011;67887;59.082;37.928;2023-04-03T14:55:44;6.32;;;2.70;;
78116;SDS011;67887;59.082;37.928;2023-04-03T14:58:13;8.30;;;2.67;;
78116;SDS011;67887;59.082;37.928;2023-04-03T15:00:41;8.32;;;2.42;;
78116;SDS011;67887;59.082;37.928;2023-04-03T15:03:26;9.25;;;2.25;;
78116;SDS011;67887;59.082;37.928;2023-04-03T15:05:52;8.52;;;2.53;;
78116;SDS011;67887;59.082;37.928;2023-04-03T15:10:50;7.15;;;2.55;;
78116;SDS011;67887;59.082;37.928;2023-04-03T15:13:21;10.25;;;2.95;;
78116;SDS011;67887;59.082;37.928;2023-04-03T15:15:49;8.13;;;2.83;;
78116;SDS011;67887;59.082;37.928;2023-04-03T15:18:23;9.32;;;2.90;;
78116;SDS011;67887;59.082;37.928;2023-04-03T15:20:52;8.60;;;2.65;;
78116;SDS011;67887;59.082;37.928;2023-04-03T15:23:20;9.48;;;3.08;;
78116;SDS011;67887;59.082;37.928;2023-04-03T15:25:51;9.80;;;2.80;;
78116;SDS011;67887;59.082;37.928;2023-04-03T15:28:30;7.07;;;2.33;;
78116;SDS011;67887;59.082;37.928;2023-04-03T15:31:00;9.57;;;2.78;;
78116;SDS011;67887;59.082;37.928;2023-04-03T15:33:27;7.40;;;2.40;;
78116;SDS011;67887;59.082;37.928;2023-04-03T15:35:54;8.98;;;2.70;;
78116;SDS011;67887;59.082;37.928;2023-04-03T15:38:20;8.02;;;2.72;;
78116;SDS011;67887;59.082;37.928;2023-04-03T15:40:47;7.47;;;2.30;;
78116;SDS011;67887;59.082;37.928;2023-04-03T15:43:13;6.28;;;2.63;;
78116;SDS011;67887;59.082;37.928;2023-04-03T15:45:40;8.68;;;2.25;;
78116;SDS011;67887;59.082;37.928;2023-04-03T15:48:08;5.88;;;2.28;;
78116;SDS011;67887;59.082;37.928;2023-04-03T15:50:36;6.65;;;2.55;;
78116;SDS011;67887;59.082;37.928;2023-04-03T15:53:02;8.10;;;2.70;;
78116;SDS011;67887;59.082;37.928;2023-04-03T15:55:30;7.90;;;2.90;;
78116;SDS011;67887;59.082;37.928;2023-04-03T15:57:58;7.53;;;2.85;;
78116;SDS011;67887;59.082;37.928;2023-04-03T16:00:25;8.52;;;3.03;;
78116;SDS011;67887;59.082;37.928;2023-04-03T16:02:53;9.30;;;2.72;;
78116;SDS011;67887;59.082;37.928;2023-04-03T16:05:25;7.50;;;3.05;;
78116;SDS011;67887;59.082;37.928;2023-04-03T16:07:51;7.55;;;2.60;;
78116;SDS011;67887;59.082;37.928;2023-04-03T16:10:17;11.27;;;2.97;;
78116;SDS011;67887;59.082;37.928;2023-04-03T16:12:44;6.70;;;2.50;;
78116;SDS011;67887;59.082;37.928;2023-04-03T16:15:11;8.52;;;2.92;;
78116;SDS011;67887;59.082;37.928;2023-04-03T16:17:38;8.10;;;2.67;;
78116;SDS011;67887;59.082;37.928;2023-04-03T16:22:34;7.15;;;2.50;;
78116;SDS011;67887;59.082;37.928;2023-04-03T16:25:01;7.63;;;2.55;;
78116;SDS011;67887;59.082;37.928;2023-04-03T16:27:27;10.40;;;2.60;;
78116;SDS011;67887;59.082;37.928;2023-04-03T16:29:55;8.48;;;2.50;;
78116;SDS011;67887;59.082;37.928;2023-04-03T16:32:22;11.35;;;2.63;;
78116;SDS011;67887;59.082;37.928;2023-04-03T16:34:52;7.60;;;2.50;;
78116;SDS011;67887;59.082;37.928;2023-04-03T16:37:19;9.00;;;2.55;;
78116;SDS011;67887;59.082;37.928;2023-04-03T16:39:45;5.38;;;2.00;;
78116;SDS011;67887;59.082;37.928;2023-04-03T16:42:12;7.60;;;2.75;;
78116;SDS011;67887;59.082;37.928;2023-04-03T16:44:38;8.63;;;2.80;;
78116;SDS011;67887;59.082;37.928;2023-04-03T16:47:06;7.63;;;2.67;;